Terminal Aerodrome Forecast
Issued by NWS Corpus Christi, TX

Home | Current Version | Previous Version | Text Only | Print | Product List | Glossary On
Versions: 1 2 3 4 5 6 7 8 9 10 11 12 13 14 15 16 17 18 19
290
FTUS44 KCRP 191743
TAFVCT
TAF
KVCT 191743Z 1918/2018 18005KT P6SM BKN020
     FM192100 24005KT P6SM SCT025 SCT035
     FM200400 18005KT 3SM BR BKN010
     FM200600 18005KT 1/2SM FG VV002
      TEMPO 2007/2011 1/4SM FG VV001
     FM201400 22004KT 2SM BR OVC004=

USA.gov is the U.S. government's official web portal to all federal, state and local government web resources and services.